sensor_id;sensor_type;location;lat;lon;timestamp;P1;durP1;ratioP1;P2;durP2;ratioP2
57247;SDS011;55809;46.618;10.764;2024-02-15T00:01:23;3.70;;;1.20;;
57247;SDS011;55809;46.618;10.764;2024-02-15T00:03:52;2.35;;;1.10;;
57247;SDS011;55809;46.618;10.764;2024-02-15T00:06:19;3.88;;;1.30;;
57247;SDS011;55809;46.618;10.764;2024-02-15T00:08:49;3.22;;;1.52;;
57247;SDS011;55809;46.618;10.764;2024-02-15T00:11:18;4.47;;;1.60;;
57247;SDS011;55809;46.618;10.764;2024-02-15T00:13:48;4.93;;;1.55;;
57247;SDS011;55809;46.618;10.764;2024-02-15T00:16:15;3.93;;;1.30;;
57247;SDS011;55809;46.618;10.764;2024-02-15T00:18:43;3.38;;;1.10;;
57247;SDS011;55809;46.618;10.764;2024-02-15T00:21:10;3.00;;;1.35;;
57247;SDS011;55809;46.618;10.764;2024-02-15T00:23:40;3.38;;;1.35;;
57247;SDS011;55809;46.618;10.764;2024-02-15T00:26:08;2.30;;;1.00;;
57247;SDS011;55809;46.618;10.764;2024-02-15T00:28:37;2.67;;;0.93;;
57247;SDS011;55809;46.618;10.764;2024-02-15T00:31:05;2.75;;;1.15;;
57247;SDS011;55809;46.618;10.764;2024-02-15T00:33:34;5.30;;;1.67;;
57247;SDS011;55809;46.618;10.764;2024-02-15T00:36:02;4.57;;;1.83;;
57247;SDS011;55809;46.618;10.764;2024-02-15T00:38:31;7.07;;;2.38;;
57247;SDS011;55809;46.618;10.764;2024-02-15T00:40:59;5.95;;;2.33;;
57247;SDS011;55809;46.618;10.764;2024-02-15T00:43:26;4.75;;;1.85;;
57247;SDS011;55809;46.618;10.764;2024-02-15T00:45:55;5.18;;;1.80;;
57247;SDS011;55809;46.618;10.764;2024-02-15T00:48:25;4.60;;;1.70;;
57247;SDS011;55809;46.618;10.764;2024-02-15T00:50:55;3.30;;;1.23;;
57247;SDS011;55809;46.618;10.764;2024-02-15T00:53:24;2.53;;;1.20;;
57247;SDS011;55809;46.618;10.764;2024-02-15T00:55:51;3.20;;;1.20;;
57247;SDS011;55809;46.618;10.764;2024-02-15T00:58:21;2.72;;;1.08;;
57247;SDS011;55809;46.618;10.764;2024-02-15T01:00:50;3.28;;;1.00;;
57247;SDS011;55809;46.618;10.764;2024-02-15T01:03:18;2.00;;;0.90;;
57247;SDS011;55809;46.618;10.764;2024-02-15T01:05:49;4.03;;;0.93;;
57247;SDS011;55809;46.618;10.764;2024-02-15T01:08:16;2.08;;;0.70;;
57247;SDS011;55809;46.618;10.764;2024-02-15T01:10:46;2.42;;;0.70;;
57247;SDS011;55809;46.618;10.764;2024-02-15T01:13:15;1.60;;;0.90;;
57247;SDS011;55809;46.618;10.764;2024-02-15T01:15:42;3.05;;;1.15;;
57247;SDS011;55809;46.618;10.764;2024-02-15T01:18:09;5.72;;;1.75;;
57247;SDS011;55809;46.618;10.764;2024-02-15T01:20:37;4.50;;;1.65;;
57247;SDS011;55809;46.618;10.764;2024-02-15T01:23:06;2.90;;;1.38;;
57247;SDS011;55809;46.618;10.764;2024-02-15T01:25:34;2.63;;;1.00;;
57247;SDS011;55809;46.618;10.764;2024-02-15T01:28:01;3.10;;;0.95;;
57247;SDS011;55809;46.618;10.764;2024-02-15T01:30:28;2.58;;;0.98;;
57247;SDS011;55809;46.618;10.764;2024-02-15T01:32:56;4.78;;;1.05;;
57247;SDS011;55809;46.618;10.764;2024-02-15T01:35:25;3.90;;;1.08;;
57247;SDS011;55809;46.618;10.764;2024-02-15T01:37:55;4.88;;;1.50;;
57247;SDS011;55809;46.618;10.764;2024-02-15T01:40:23;5.18;;;1.65;;
57247;SDS011;55809;46.618;10.764;2024-02-15T01:42:50;5.38;;;1.50;;
57247;SDS011;55809;46.618;10.764;2024-02-15T01:45:18;4.07;;;1.65;;
57247;SDS011;55809;46.618;10.764;2024-02-15T01:47:47;5.80;;;2.17;;
57247;SDS011;55809;46.618;10.764;2024-02-15T01:50:16;5.22;;;1.55;;
57247;SDS011;55809;46.618;10.764;2024-02-15T01:52:45;6.22;;;1.77;;
57247;SDS011;55809;46.618;10.764;2024-02-15T01:55:15;4.55;;;1.65;;
57247;SDS011;55809;46.618;10.764;2024-02-15T01:57:45;5.05;;;1.60;;
57247;SDS011;55809;46.618;10.764;2024-02-15T02:00:14;4.43;;;1.45;;
57247;SDS011;55809;46.618;10.764;2024-02-15T02:02:45;4.25;;;1.40;;
57247;SDS011;55809;46.618;10.764;2024-02-15T02:05:14;4.68;;;1.70;;
57247;SDS011;55809;46.618;10.764;2024-02-15T02:07:42;4.53;;;1.45;;
57247;SDS011;55809;46.618;10.764;2024-02-15T02:10:11;3.85;;;1.60;;
57247;SDS011;55809;46.618;10.764;2024-02-15T02:12:40;4.97;;;1.50;;
57247;SDS011;55809;46.618;10.764;2024-02-15T02:15:09;3.95;;;1.48;;
57247;SDS011;55809;46.618;10.764;2024-02-15T02:17:37;2.97;;;1.00;;
57247;SDS011;55809;46.618;10.764;2024-02-15T02:20:07;1.83;;;0.88;;
57247;SDS011;55809;46.618;10.764;2024-02-15T02:22:37;1.88;;;0.75;;
57247;SDS011;55809;46.618;10.764;2024-02-15T02:25:09;3.20;;;1.10;;
57247;SDS011;55809;46.618;10.764;2024-02-15T02:27:38;2.40;;;0.95;;
57247;SDS011;55809;46.618;10.764;2024-02-15T02:30:12;2.33;;;1.00;;
57247;SDS011;55809;46.618;10.764;2024-02-15T02:32:44;4.03;;;1.23;;
57247;SDS011;55809;46.618;10.764;2024-02-15T02:35:11;3.40;;;1.20;;
57247;SDS011;55809;46.618;10.764;2024-02-15T02:37:42;1.98;;;0.95;;
57247;SDS011;55809;46.618;10.764;2024-02-15T02:40:11;3.13;;;1.27;;
57247;SDS011;55809;46.618;10.764;2024-02-15T02:42:49;2.80;;;1.00;;
57247;SDS011;55809;46.618;10.764;2024-02-15T02:45:18;3.08;;;1.13;;
57247;SDS011;55809;46.618;10.764;2024-02-15T02:47:49;3.55;;;1.10;;
57247;SDS011;55809;46.618;10.764;2024-02-15T02:50:17;2.47;;;1.00;;
57247;SDS011;55809;46.618;10.764;2024-02-15T02:52:45;2.80;;;1.00;;
57247;SDS011;55809;46.618;10.764;2024-02-15T02:55:18;3.53;;;1.05;;
57247;SDS011;55809;46.618;10.764;2024-02-15T02:57:45;3.63;;;1.17;;
57247;SDS011;55809;46.618;10.764;2024-02-15T03:00:14;4.55;;;1.60;;
57247;SDS011;55809;46.618;10.764;2024-02-15T03:02:43;5.13;;;1.92;;
57247;SDS011;55809;46.618;10.764;2024-02-15T03:05:11;4.45;;;1.52;;
57247;SDS011;55809;46.618;10.764;2024-02-15T03:07:40;4.22;;;1.75;;
57247;SDS011;55809;46.618;10.764;2024-02-15T03:10:10;3.13;;;1.30;;
57247;SDS011;55809;46.618;10.764;2024-02-15T03:12:42;4.40;;;1.50;;
57247;SDS011;55809;46.618;10.764;2024-02-15T03:15:13;3.10;;;1.20;;
57247;SDS011;55809;46.618;10.764;2024-02-15T03:17:40;6.47;;;1.60;;
57247;SDS011;55809;46.618;10.764;2024-02-15T03:20:10;4.95;;;1.70;;
57247;SDS011;55809;46.618;10.764;2024-02-15T03:22:50;4.25;;;1.50;;
57247;SDS011;55809;46.618;10.764;2024-02-15T03:25:19;3.05;;;1.30;;
57247;SDS011;55809;46.618;10.764;2024-02-15T03:30:23;5.30;;;1.83;;
57247;SDS011;55809;46.618;10.764;2024-02-15T03:32:52;4.97;;;1.70;;
57247;SDS011;55809;46.618;10.764;2024-02-15T03:35:21;4.05;;;1.50;;
57247;SDS011;55809;46.618;10.764;2024-02-15T03:37:52;6.13;;;1.70;;
57247;SDS011;55809;46.618;10.764;2024-02-15T03:40:20;3.88;;;1.50;;
57247;SDS011;55809;46.618;10.764;2024-02-15T03:42:52;3.13;;;1.20;;
57247;SDS011;55809;46.618;10.764;2024-02-15T03:45:20;4.03;;;1.50;;
57247;SDS011;55809;46.618;10.764;2024-02-15T03:50:18;5.68;;;1.55;;
57247;SDS011;55809;46.618;10.764;2024-02-15T03:52:46;3.42;;;1.30;;
57247;SDS011;55809;46.618;10.764;2024-02-15T03:55:15;3.65;;;1.30;;
57247;SDS011;55809;46.618;10.764;2024-02-15T03:57:42;3.42;;;1.38;;
57247;SDS011;55809;46.618;10.764;2024-02-15T04:00:14;4.72;;;1.60;;
57247;SDS011;55809;46.618;10.764;2024-02-15T04:02:46;3.10;;;1.13;;
57247;SDS011;55809;46.618;10.764;2024-02-15T04:05:14;5.18;;;1.42;;
57247;SDS011;55809;46.618;10.764;2024-02-15T04:07:44;3.92;;;1.35;;
57247;SDS011;55809;46.618;10.764;2024-02-15T04:10:10;4.85;;;1.70;;
57247;SDS011;55809;46.618;10.764;2024-02-15T04:12:37;4.18;;;1.60;;
57247;SDS011;55809;46.618;10.764;2024-02-15T04:15:08;6.88;;;1.95;;
57247;SDS011;55809;46.618;10.764;2024-02-15T04:17:41;6.68;;;1.77;;
57247;SDS011;55809;46.618;10.764;2024-02-15T04:20:10;4.63;;;1.95;;
57247;SDS011;55809;46.618;10.764;2024-02-15T04:25:09;3.75;;;1.73;;
57247;SDS011;55809;46.618;10.764;2024-02-15T04:27:42;2.42;;;0.90;;
57247;SDS011;55809;46.618;10.764;2024-02-15T04:30:10;1.85;;;0.90;;
57247;SDS011;55809;46.618;10.764;2024-02-15T04:32:39;1.88;;;0.60;;
57247;SDS011;55809;46.618;10.764;2024-02-15T04:35:10;1.15;;;0.65;;
57247;SDS011;55809;46.618;10.764;2024-02-15T04:37:38;1.85;;;0.80;;
57247;SDS011;55809;46.618;10.764;2024-02-15T04:40:06;2.03;;;0.80;;
57247;SDS011;55809;46.618;10.764;2024-02-15T04:42:36;1.90;;;0.80;;
57247;SDS011;55809;46.618;10.764;2024-02-15T04:45:05;2.35;;;0.90;;
57247;SDS011;55809;46.618;10.764;2024-02-15T04:50:35;2.33;;;0.60;;
57247;SDS011;55809;46.618;10.764;2024-02-15T04:53:04;2.03;;;0.60;;
57247;SDS011;55809;46.618;10.764;2024-02-15T04:55:33;1.35;;;0.57;;
57247;SDS011;55809;46.618;10.764;2024-02-15T04:58:02;2.22;;;0.80;;
57247;SDS011;55809;46.618;10.764;2024-02-15T05:00:29;2.35;;;0.80;;
57247;SDS011;55809;46.618;10.764;2024-02-15T05:02:58;3.80;;;1.00;;
57247;SDS011;55809;46.618;10.764;2024-02-15T05:05:27;3.58;;;1.35;;
57247;SDS011;55809;46.618;10.764;2024-02-15T05:07:58;5.05;;;1.67;;
57247;SDS011;55809;46.618;10.764;2024-02-15T05:10:27;3.33;;;1.20;;
57247;SDS011;55809;46.618;10.764;2024-02-15T05:12:56;3.13;;;1.25;;
57247;SDS011;55809;46.618;10.764;2024-02-15T05:15:26;3.75;;;1.40;;
57247;SDS011;55809;46.618;10.764;2024-02-15T05:17:55;3.17;;;1.42;;
57247;SDS011;55809;46.618;10.764;2024-02-15T05:20:22;4.40;;;1.50;;
57247;SDS011;55809;46.618;10.764;2024-02-15T05:22:53;5.18;;;1.65;;
57247;SDS011;55809;46.618;10.764;2024-02-15T05:25:33;4.30;;;1.33;;
57247;SDS011;55809;46.618;10.764;2024-02-15T05:28:02;5.30;;;1.40;;
57247;SDS011;55809;46.618;10.764;2024-02-15T05:33:01;4.40;;;1.33;;
57247;SDS011;55809;46.618;10.764;2024-02-15T05:35:29;5.88;;;1.80;;
57247;SDS011;55809;46.618;10.764;2024-02-15T05:37:57;3.97;;;1.23;;
57247;SDS011;55809;46.618;10.764;2024-02-15T05:40:25;4.40;;;1.40;;
57247;SDS011;55809;46.618;10.764;2024-02-15T05:42:57;3.15;;;1.20;;
57247;SDS011;55809;46.618;10.764;2024-02-15T05:45:28;3.78;;;1.15;;
57247;SDS011;55809;46.618;10.764;2024-02-15T05:47:59;4.13;;;1.20;;
57247;SDS011;55809;46.618;10.764;2024-02-15T05:50:28;3.53;;;1.35;;
57247;SDS011;55809;46.618;10.764;2024-02-15T05:52:58;4.25;;;1.58;;
57247;SDS011;55809;46.618;10.764;2024-02-15T05:55:28;5.07;;;1.67;;
57247;SDS011;55809;46.618;10.764;2024-02-15T05:58:03;3.55;;;1.40;;
57247;SDS011;55809;46.618;10.764;2024-02-15T06:00:37;16.92;;;7.18;;
57247;SDS011;55809;46.618;10.764;2024-02-15T06:03:06;7.70;;;3.08;;
57247;SDS011;55809;46.618;10.764;2024-02-15T06:05:34;5.30;;;2.25;;
57247;SDS011;55809;46.618;10.764;2024-02-15T06:08:01;3.38;;;1.60;;
57247;SDS011;55809;46.618;10.764;2024-02-15T06:10:29;3.38;;;1.60;;
57247;SDS011;55809;46.618;10.764;2024-02-15T06:12:56;3.97;;;1.38;;
57247;SDS011;55809;46.618;10.764;2024-02-15T06:15:25;3.80;;;1.10;;
57247;SDS011;55809;46.618;10.764;2024-02-15T06:17:52;2.22;;;1.10;;
57247;SDS011;55809;46.618;10.764;2024-02-15T06:20:20;2.17;;;1.05;;
57247;SDS011;55809;46.618;10.764;2024-02-15T06:22:47;1.95;;;0.80;;
57247;SDS011;55809;46.618;10.764;2024-02-15T06:25:15;3.10;;;1.30;;
57247;SDS011;55809;46.618;10.764;2024-02-15T06:27:45;3.13;;;1.10;;
57247;SDS011;55809;46.618;10.764;2024-02-15T06:30:14;3.47;;;1.30;;
57247;SDS011;55809;46.618;10.764;2024-02-15T06:33:00;3.53;;;1.40;;
57247;SDS011;55809;46.618;10.764;2024-02-15T06:35:44;2.88;;;1.50;;
57247;SDS011;55809;46.618;10.764;2024-02-15T06:38:28;3.40;;;1.20;;
57247;SDS011;55809;46.618;10.764;2024-02-15T06:41:13;5.03;;;1.30;;
57247;SDS011;55809;46.618;10.764;2024-02-15T06:43:40;3.88;;;1.80;;
57247;SDS011;55809;46.618;10.764;2024-02-15T06:46:07;5.13;;;2.22;;
57247;SDS011;55809;46.618;10.764;2024-02-15T06:48:37;5.60;;;2.00;;
57247;SDS011;55809;46.618;10.764;2024-02-15T06:51:05;5.82;;;2.30;;
57247;SDS011;55809;46.618;10.764;2024-02-15T06:53:38;6.63;;;2.47;;
57247;SDS011;55809;46.618;10.764;2024-02-15T06:56:06;6.63;;;2.45;;
57247;SDS011;55809;46.618;10.764;2024-02-15T06:58:35;5.87;;;2.50;;
57247;SDS011;55809;46.618;10.764;2024-02-15T07:01:02;6.00;;;2.47;;
57247;SDS011;55809;46.618;10.764;2024-02-15T07:03:30;7.82;;;2.47;;
57247;SDS011;55809;46.618;10.764;2024-02-15T07:06:00;5.15;;;2.17;;
57247;SDS011;55809;46.618;10.764;2024-02-15T07:08:28;5.15;;;1.55;;
57247;SDS011;55809;46.618;10.764;2024-02-15T07:10:55;5.85;;;2.05;;
57247;SDS011;55809;46.618;10.764;2024-02-15T07:13:22;4.60;;;2.10;;
57247;SDS011;55809;46.618;10.764;2024-02-15T07:15:51;5.50;;;2.05;;
57247;SDS011;55809;46.618;10.764;2024-02-15T07:18:18;5.55;;;2.15;;
57247;SDS011;55809;46.618;10.764;2024-02-15T07:20:47;6.85;;;2.58;;
57247;SDS011;55809;46.618;10.764;2024-02-15T07:23:15;5.22;;;2.00;;
57247;SDS011;55809;46.618;10.764;2024-02-15T07:25:43;4.05;;;1.27;;
57247;SDS011;55809;46.618;10.764;2024-02-15T07:28:14;2.90;;;0.95;;
57247;SDS011;55809;46.618;10.764;2024-02-15T07:30:40;4.95;;;1.35;;
57247;SDS011;55809;46.618;10.764;2024-02-15T07:33:08;6.25;;;0.90;;
57247;SDS011;55809;46.618;10.764;2024-02-15T07:35:35;3.45;;;1.20;;
57247;SDS011;55809;46.618;10.764;2024-02-15T07:38:02;3.30;;;1.00;;
57247;SDS011;55809;46.618;10.764;2024-02-15T07:40:31;2.38;;;0.90;;
57247;SDS011;55809;46.618;10.764;2024-02-15T07:42:58;2.30;;;0.80;;
57247;SDS011;55809;46.618;10.764;2024-02-15T07:45:25;2.58;;;0.88;;
57247;SDS011;55809;46.618;10.764;2024-02-15T07:47:53;3.95;;;0.88;;
57247;SDS011;55809;46.618;10.764;2024-02-15T07:50:20;4.30;;;1.38;;
57247;SDS011;55809;46.618;10.764;2024-02-15T07:52:48;2.88;;;1.35;;
57247;SDS011;55809;46.618;10.764;2024-02-15T07:55:16;4.32;;;1.77;;
57247;SDS011;55809;46.618;10.764;2024-02-15T07:57:44;4.70;;;1.90;;
57247;SDS011;55809;46.618;10.764;2024-02-15T08:00:13;5.38;;;1.70;;
57247;SDS011;55809;46.618;10.764;2024-02-15T08:02:41;4.13;;;1.30;;
57247;SDS011;55809;46.618;10.764;2024-02-15T08:05:09;6.75;;;1.17;;
57247;SDS011;55809;46.618;10.764;2024-02-15T08:07:37;8.15;;;1.60;;
57247;SDS011;55809;46.618;10.764;2024-02-15T08:10:05;3.97;;;1.42;;
57247;SDS011;55809;46.618;10.764;2024-02-15T08:12:38;7.28;;;1.67;;
57247;SDS011;55809;46.618;10.764;2024-02-15T08:15:08;4.50;;;2.22;;
57247;SDS011;55809;46.618;10.764;2024-02-15T08:17:39;9.23;;;2.40;;
57247;SDS011;55809;46.618;10.764;2024-02-15T08:20:07;7.00;;;2.25;;
57247;SDS011;55809;46.618;10.764;2024-02-15T08:22:36;5.82;;;2.30;;
57247;SDS011;55809;46.618;10.764;2024-02-15T08:25:05;5.05;;;2.10;;
57247;SDS011;55809;46.618;10.764;2024-02-15T08:27:36;4.05;;;1.75;;
57247;SDS011;55809;46.618;10.764;2024-02-15T08:30:08;5.25;;;1.38;;
57247;SDS011;55809;46.618;10.764;2024-02-15T08:32:36;4.88;;;1.00;;
57247;SDS011;55809;46.618;10.764;2024-02-15T08:35:05;2.10;;;0.80;;
57247;SDS011;55809;46.618;10.764;2024-02-15T08:37:33;2.72;;;0.90;;
57247;SDS011;55809;46.618;10.764;2024-02-15T08:40:00;2.97;;;0.98;;
57247;SDS011;55809;46.618;10.764;2024-02-15T08:42:28;2.38;;;0.93;;
57247;SDS011;55809;46.618;10.764;2024-02-15T08:44:55;1.77;;;0.80;;
57247;SDS011;55809;46.618;10.764;2024-02-15T08:47:25;1.73;;;0.77;;
57247;SDS011;55809;46.618;10.764;2024-02-15T08:49:53;1.75;;;0.63;;
57247;SDS011;55809;46.618;10.764;2024-02-15T08:52:20;1.30;;;0.57;;
57247;SDS011;55809;46.618;10.764;2024-02-15T08:54:47;1.13;;;0.47;;
57247;SDS011;55809;46.618;10.764;2024-02-15T08:57:14;1.77;;;0.80;;
57247;SDS011;55809;46.618;10.764;2024-02-15T08:59:41;2.03;;;0.80;;
57247;SDS011;55809;46.618;10.764;2024-02-15T09:02:08;3.67;;;1.40;;
57247;SDS011;55809;46.618;10.764;2024-02-15T09:04:37;3.15;;;1.40;;
57247;SDS011;55809;46.618;10.764;2024-02-15T09:07:06;4.47;;;1.38;;
57247;SDS011;55809;46.618;10.764;2024-02-15T09:09:34;3.95;;;1.40;;
57247;SDS011;55809;46.618;10.764;2024-02-15T09:12:02;4.45;;;1.23;;
57247;SDS011;55809;46.618;10.764;2024-02-15T09:14:31;6.30;;;2.00;;
57247;SDS011;55809;46.618;10.764;2024-02-15T09:16:59;3.65;;;1.42;;
57247;SDS011;55809;46.618;10.764;2024-02-15T09:19:26;2.28;;;0.90;;
57247;SDS011;55809;46.618;10.764;2024-02-15T09:21:54;3.80;;;1.10;;
57247;SDS011;55809;46.618;10.764;2024-02-15T09:24:22;2.95;;;0.95;;
57247;SDS011;55809;46.618;10.764;2024-02-15T09:26:50;2.30;;;0.95;;
57247;SDS011;55809;46.618;10.764;2024-02-15T09:29:18;3.55;;;1.00;;
57247;SDS011;55809;46.618;10.764;2024-02-15T09:31:46;2.13;;;0.68;;
57247;SDS011;55809;46.618;10.764;2024-02-15T09:34:13;3.00;;;1.00;;
57247;SDS011;55809;46.618;10.764;2024-02-15T09:36:40;2.83;;;0.88;;
57247;SDS011;55809;46.618;10.764;2024-02-15T09:39:09;3.13;;;0.70;;
57247;SDS011;55809;46.618;10.764;2024-02-15T09:41:39;2.58;;;0.70;;
57247;SDS011;55809;46.618;10.764;2024-02-15T09:44:08;2.05;;;0.68;;
57247;SDS011;55809;46.618;10.764;2024-02-15T09:46:35;1.75;;;0.75;;
57247;SDS011;55809;46.618;10.764;2024-02-15T09:49:10;1.77;;;0.60;;
57247;SDS011;55809;46.618;10.764;2024-02-15T09:51:38;1.73;;;0.70;;
57247;SDS011;55809;46.618;10.764;2024-02-15T09:54:09;1.85;;;0.68;;
57247;SDS011;55809;46.618;10.764;2024-02-15T09:59:06;2.60;;;0.98;;
57247;SDS011;55809;46.618;10.764;2024-02-15T10:01:33;2.17;;;0.75;;
57247;SDS011;55809;46.618;10.764;2024-02-15T10:04:02;1.95;;;0.68;;
57247;SDS011;55809;46.618;10.764;2024-02-15T10:06:33;1.98;;;0.60;;
57247;SDS011;55809;46.618;10.764;2024-02-15T10:11:55;2.78;;;1.50;;
57247;SDS011;55809;46.618;10.764;2024-02-15T10:14:23;3.28;;;1.10;;
57247;SDS011;55809;46.618;10.764;2024-02-15T10:16:53;3.13;;;0.90;;
57247;SDS011;55809;46.618;10.764;2024-02-15T10:19:20;3.33;;;0.93;;
57247;SDS011;55809;46.618;10.764;2024-02-15T10:21:51;4.13;;;1.10;;
57247;SDS011;55809;46.618;10.764;2024-02-15T10:24:20;2.45;;;1.00;;
57247;SDS011;55809;46.618;10.764;2024-02-15T10:26:51;3.75;;;1.30;;
57247;SDS011;55809;46.618;10.764;2024-02-15T10:29:19;4.53;;;1.48;;
57247;SDS011;55809;46.618;10.764;2024-02-15T10:31:55;3.45;;;1.17;;
57247;SDS011;55809;46.618;10.764;2024-02-15T10:34:24;2.92;;;1.23;;
57247;SDS011;55809;46.618;10.764;2024-02-15T10:36:52;3.95;;;1.10;;
57247;SDS011;55809;46.618;10.764;2024-02-15T10:39:21;4.10;;;1.02;;
57247;SDS011;55809;46.618;10.764;2024-02-15T10:41:51;1.90;;;0.95;;
57247;SDS011;55809;46.618;10.764;2024-02-15T10:44:20;2.30;;;0.90;;
57247;SDS011;55809;46.618;10.764;2024-02-15T10:46:49;2.85;;;0.82;;
57247;SDS011;55809;46.618;10.764;2024-02-15T10:49:17;2.35;;;0.70;;
57247;SDS011;55809;46.618;10.764;2024-02-15T10:51:47;1.73;;;0.73;;
57247;SDS011;55809;46.618;10.764;2024-02-15T10:54:19;1.55;;;0.55;;
57247;SDS011;55809;46.618;10.764;2024-02-15T10:57:08;0.95;;;0.60;;
57247;SDS011;55809;46.618;10.764;2024-02-15T10:59:37;3.13;;;0.70;;
57247;SDS011;55809;46.618;10.764;2024-02-15T11:02:12;1.35;;;0.52;;
57247;SDS011;55809;46.618;10.764;2024-02-15T11:04:53;1.95;;;0.70;;
57247;SDS011;55809;46.618;10.764;2024-02-15T11:07:23;1.75;;;0.60;;
57247;SDS011;55809;46.618;10.764;2024-02-15T11:09:51;5.70;;;1.27;;
57247;SDS011;55809;46.618;10.764;2024-02-15T11:12:22;1.00;;;0.80;;
57247;SDS011;55809;46.618;10.764;2024-02-15T11:14:51;1.83;;;0.60;;
57247;SDS011;55809;46.618;10.764;2024-02-15T11:23:23;2.63;;;0.80;;
57247;SDS011;55809;46.618;10.764;2024-02-15T11:25:52;3.25;;;0.85;;
57247;SDS011;55809;46.618;10.764;2024-02-15T11:28:38;2.78;;;0.80;;
57247;SDS011;55809;46.618;10.764;2024-02-15T11:31:09;4.00;;;1.13;;
57247;SDS011;55809;46.618;10.764;2024-02-15T11:33:38;2.70;;;1.10;;
57247;SDS011;55809;46.618;10.764;2024-02-15T11:36:06;2.25;;;1.00;;
57247;SDS011;55809;46.618;10.764;2024-02-15T11:38:33;1.33;;;0.60;;
57247;SDS011;55809;46.618;10.764;2024-02-15T11:41:04;1.10;;;0.75;;
57247;SDS011;55809;46.618;10.764;2024-02-15T11:43:51;1.45;;;0.52;;
57247;SDS011;55809;46.618;10.764;2024-02-15T11:46:23;2.05;;;0.65;;
57247;SDS011;55809;46.618;10.764;2024-02-15T11:48:50;2.25;;;0.70;;
57247;SDS011;55809;46.618;10.764;2024-02-15T11:51:25;2.28;;;0.50;;
57247;SDS011;55809;46.618;10.764;2024-02-15T11:54:02;1.30;;;0.57;;
57247;SDS011;55809;46.618;10.764;2024-02-15T11:56:51;2.08;;;0.52;;
57247;SDS011;55809;46.618;10.764;2024-02-15T11:59:31;2.78;;;0.80;;
57247;SDS011;55809;46.618;10.764;2024-02-15T12:02:18;1.65;;;0.50;;
57247;SDS011;55809;46.618;10.764;2024-02-15T12:05:03;1.42;;;0.57;;
57247;SDS011;55809;46.618;10.764;2024-02-15T12:07:53;1.58;;;0.70;;
57247;SDS011;55809;46.618;10.764;2024-02-15T12:10:38;2.25;;;0.60;;
57247;SDS011;55809;46.618;10.764;2024-02-15T12:13:22;2.35;;;0.90;;
57247;SDS011;55809;46.618;10.764;2024-02-15T12:16:08;1.63;;;0.40;;
57247;SDS011;55809;46.618;10.764;2024-02-15T12:18:52;2.15;;;0.68;;
57247;SDS011;55809;46.618;10.764;2024-02-15T12:21:20;1.83;;;0.52;;
57247;SDS011;55809;46.618;10.764;2024-02-15T12:23:50;2.25;;;0.65;;
57247;SDS011;55809;46.618;10.764;2024-02-15T12:26:18;1.75;;;0.50;;
57247;SDS011;55809;46.618;10.764;2024-02-15T12:28:49;1.52;;;0.60;;
57247;SDS011;55809;46.618;10.764;2024-02-15T12:31:21;1.88;;;0.70;;
57247;SDS011;55809;46.618;10.764;2024-02-15T12:33:59;1.40;;;0.63;;
57247;SDS011;55809;46.618;10.764;2024-02-15T12:36:28;2.13;;;0.75;;
57247;SDS011;55809;46.618;10.764;2024-02-15T12:39:01;3.45;;;0.82;;
57247;SDS011;55809;46.618;10.764;2024-02-15T12:41:28;1.05;;;0.60;;
57247;SDS011;55809;46.618;10.764;2024-02-15T12:43:56;1.75;;;0.82;;
57247;SDS011;55809;46.618;10.764;2024-02-15T12:46:25;1.83;;;0.65;;
57247;SDS011;55809;46.618;10.764;2024-02-15T12:49:05;2.90;;;0.80;;
57247;SDS011;55809;46.618;10.764;2024-02-15T12:51:33;3.10;;;1.00;;
57247;SDS011;55809;46.618;10.764;2024-02-15T12:54:07;2.40;;;1.00;;
57247;SDS011;55809;46.618;10.764;2024-02-15T12:56:35;2.63;;;0.70;;
57247;SDS011;55809;46.618;10.764;2024-02-15T12:59:02;2.45;;;0.95;;
57247;SDS011;55809;46.618;10.764;2024-02-15T13:01:31;2.70;;;0.90;;
57247;SDS011;55809;46.618;10.764;2024-02-15T13:03:59;3.00;;;0.90;;
57247;SDS011;55809;46.618;10.764;2024-02-15T13:06:26;2.03;;;0.60;;
57247;SDS011;55809;46.618;10.764;2024-02-15T13:08:54;2.15;;;0.77;;
57247;SDS011;55809;46.618;10.764;2024-02-15T13:11:21;1.90;;;0.68;;
57247;SDS011;55809;46.618;10.764;2024-02-15T13:13:48;2.30;;;0.77;;
57247;SDS011;55809;46.618;10.764;2024-02-15T13:16:15;3.08;;;0.80;;
57247;SDS011;55809;46.618;10.764;2024-02-15T13:18:43;2.25;;;0.52;;
57247;SDS011;55809;46.618;10.764;2024-02-15T13:21:12;1.43;;;0.80;;
57247;SDS011;55809;46.618;10.764;2024-02-15T13:23:39;1.40;;;0.68;;
57247;SDS011;55809;46.618;10.764;2024-02-15T13:26:06;1.73;;;0.80;;
57247;SDS011;55809;46.618;10.764;2024-02-15T13:28:36;1.80;;;0.57;;
57247;SDS011;55809;46.618;10.764;2024-02-15T13:31:04;2.45;;;0.77;;
57247;SDS011;55809;46.618;10.764;2024-02-15T13:33:32;2.05;;;0.75;;
57247;SDS011;55809;46.618;10.764;2024-02-15T13:36:00;1.48;;;0.50;;
57247;SDS011;55809;46.618;10.764;2024-02-15T13:38:27;2.47;;;0.70;;
57247;SDS011;55809;46.618;10.764;2024-02-15T13:40:55;6.13;;;2.28;;
57247;SDS011;55809;46.618;10.764;2024-02-15T13:43:25;4.07;;;0.68;;
57247;SDS011;55809;46.618;10.764;2024-02-15T13:45:52;3.58;;;0.60;;
57247;SDS011;55809;46.618;10.764;2024-02-15T13:48:19;2.08;;;0.68;;
57247;SDS011;55809;46.618;10.764;2024-02-15T13:50:46;1.42;;;0.60;;
57247;SDS011;55809;46.618;10.764;2024-02-15T13:53:14;3.08;;;0.55;;
57247;SDS011;55809;46.618;10.764;2024-02-15T13:55:42;3.20;;;0.63;;
57247;SDS011;55809;46.618;10.764;2024-02-15T13:58:10;3.13;;;0.80;;
57247;SDS011;55809;46.618;10.764;2024-02-15T14:00:37;1.83;;;0.80;;
57247;SDS011;55809;46.618;10.764;2024-02-15T14:03:07;1.25;;;0.60;;
57247;SDS011;55809;46.618;10.764;2024-02-15T14:05:35;2.50;;;0.90;;
57247;SDS011;55809;46.618;10.764;2024-02-15T14:08:05;1.58;;;0.60;;
57247;SDS011;55809;46.618;10.764;2024-02-15T14:10:35;1.45;;;0.50;;
57247;SDS011;55809;46.618;10.764;2024-02-15T14:13:02;3.28;;;0.77;;
57247;SDS011;55809;46.618;10.764;2024-02-15T14:15:33;2.20;;;0.60;;
57247;SDS011;55809;46.618;10.764;2024-02-15T14:18:02;2.58;;;0.93;;
57247;SDS011;55809;46.618;10.764;2024-02-15T14:20:29;3.58;;;0.85;;
57247;SDS011;55809;46.618;10.764;2024-02-15T14:22:57;1.77;;;0.70;;
57247;SDS011;55809;46.618;10.764;2024-02-15T14:25:30;2.25;;;0.60;;
57247;SDS011;55809;46.618;10.764;2024-02-15T14:28:00;1.58;;;0.50;;
57247;SDS011;55809;46.618;10.764;2024-02-15T14:30:28;2.50;;;0.85;;
57247;SDS011;55809;46.618;10.764;2024-02-15T14:33:12;2.75;;;1.00;;
57247;SDS011;55809;46.618;10.764;2024-02-15T14:35:41;2.28;;;0.63;;
57247;SDS011;55809;46.618;10.764;2024-02-15T14:38:08;1.15;;;0.50;;
57247;SDS011;55809;46.618;10.764;2024-02-15T14:40:37;1.30;;;0.70;;
57247;SDS011;55809;46.618;10.764;2024-02-15T14:43:06;5.05;;;1.17;;
57247;SDS011;55809;46.618;10.764;2024-02-15T14:45:37;2.58;;;0.88;;
57247;SDS011;55809;46.618;10.764;2024-02-15T14:48:06;1.75;;;0.50;;
57247;SDS011;55809;46.618;10.764;2024-02-15T14:50:35;3.00;;;0.80;;
57247;SDS011;55809;46.618;10.764;2024-02-15T14:53:02;5.47;;;1.15;;
57247;SDS011;55809;46.618;10.764;2024-02-15T14:55:29;5.07;;;1.48;;
57247;SDS011;55809;46.618;10.764;2024-02-15T14:57:56;4.70;;;1.50;;
57247;SDS011;55809;46.618;10.764;2024-02-15T15:00:25;7.50;;;1.50;;
57247;SDS011;55809;46.618;10.764;2024-02-15T15:02:53;4.75;;;1.30;;
57247;SDS011;55809;46.618;10.764;2024-02-15T15:05:22;2.28;;;0.90;;
57247;SDS011;55809;46.618;10.764;2024-02-15T15:08:06;4.03;;;1.33;;
57247;SDS011;55809;46.618;10.764;2024-02-15T15:10:51;5.13;;;1.10;;
57247;SDS011;55809;46.618;10.764;2024-02-15T15:13:35;3.03;;;0.95;;